Time;durP1;ratioP1;P1;durP2;ratioP2;P2;SDS_P1;SDS_P2;PMS_P1;PMS_P2;Temp;Humidity;BMP_temperature;BMP_pressure;BME280_temperature;BME280_humidity;BME280_pressure;Samples;Min_cycle;Max_cycle;Signal;HPM_P1;HPM_P2
2022/05/29 00:09:51;;;;;;;7.50;0.95;;;9.90;99.90;;;;;;20708094;28;20034;-44
2022/05/29 00:19:53;;;;;;;1.30;0.60;;;9.70;99.90;;;;;;20720508;28;20417;-45
2022/05/29 00:29:55;;;;;;;2.78;0.68;;;9.80;99.90;;;;;;20702215;28;22627;-45
2022/05/29 00:39:56;;;;;;;1.75;1.10;;;9.70;99.90;;;;;;20712003;28;20405;-45
2022/05/29 00:49:58;;;;;;;1.23;0.50;;;9.70;99.90;;;;;;20721153;28;20879;-45
2022/05/29 01:00:12;;;;;;;1.67;0.65;;;9.70;99.90;;;;;;20689206;28;20042;-45
2022/05/29 01:10:14;;;;;;;0.45;0.30;;;9.70;99.90;;;;;;20701300;28;20044;-45
2022/05/29 01:20:30;;;;;;;1.10;0.40;;;9.70;99.90;;;;;;20740117;28;20041;-45
2022/05/29 01:30:39;;;;;;;2.85;1.02;;;9.50;99.90;;;;;;20710343;28;20049;-45
2022/05/29 01:40:46;;;;;;;3.08;0.63;;;9.50;99.90;;;;;;20720178;28;20482;-45
2022/05/29 01:50:54;;;;;;;4.07;2.43;;;9.50;99.90;;;;;;20721322;28;20054;-45
2022/05/29 02:01:00;;;;;;;1.23;0.50;;;9.60;99.90;;;;;;20697241;28;20050;-45
2022/05/29 02:11:08;;;;;;;1.85;0.60;;;9.70;99.90;;;;;;20688488;28;20045;-45
2022/05/29 02:21:21;;;;;;;2.78;0.60;;;9.80;99.90;;;;;;20728605;28;20415;-45
2022/05/29 03:05:52;;;;;;;0.60;0.30;;;10.00;99.90;;;;;;20746095;28;20061;-94
2022/05/29 04:13:44;;;;;;;1.10;0.57;;;9.90;99.90;;;;;;20452763;28;20054;-95
2022/05/29 04:36:40;;;;;;;2.38;0.82;;;9.90;99.90;;;;;;20126148;29;20060;-95
2022/05/29 05:45:11;;;;;;;3.10;1.75;;;10.20;99.90;;;;;;20466917;28;20004;-95
2022/05/29 06:54:05;;;;;;;0.63;0.20;;;11.70;99.90;;;;;;20638820;23;20054;-42
2022/05/29 07:14:45;;;;;;;1.27;0.32;;;12.00;99.90;;;;;;20600163;28;20901;-44
2022/05/29 07:24:47;;;;;;;0.93;0.30;;;12.00;99.90;;;;;;20642256;28;20056;-44
2022/05/29 07:34:48;;;;;;;1.38;0.30;;;12.10;99.90;;;;;;20624635;28;20047;-44
2022/05/29 07:44:49;;;;;;;1.65;0.40;;;12.30;99.90;;;;;;20643954;28;20046;-43
2022/05/29 07:54:52;;;;;;;3.78;0.60;;;12.50;99.90;;;;;;20635092;28;20050;-44
2022/05/29 08:04:59;;;;;;;1.05;0.30;;;12.50;99.90;;;;;;20638174;28;20046;-43
2022/05/29 08:15:00;;;;;;;0.83;0.70;;;12.70;99.90;;;;;;20613686;28;20337;-44
2022/05/29 08:35:21;;;;;;;2.90;1.17;;;12.70;99.90;;;;;;20689578;28;20171;-44
2022/05/29 08:45:22;;;;;;;0.52;0.30;;;12.70;99.90;;;;;;20704876;28;20056;-44
2022/05/29 08:55:47;;;;;;;1.77;0.40;;;12.80;99.90;;;;;;20698852;28;20515;-44
2022/05/29 09:06:06;;;;;;;0.68;0.20;;;13.00;99.90;;;;;;20647314;28;20054;-43
2022/05/29 09:16:14;;;;;;;0.20;0.00;;;13.50;99.90;;;;;;20624934;28;20520;-43
2022/05/29 09:26:21;;;;;;;0.85;0.20;;;12.80;99.90;;;;;;20610936;28;20046;-43
2022/05/29 09:36:51;;;;;;;10.33;0.37;;;12.10;99.90;;;;;;20712813;28;21193;-43
2022/05/29 09:46:53;;;;;;;0.75;0.10;;;12.50;99.90;;;;;;20717050;28;20529;-43
2022/05/29 09:57:13;;;;;;;2.72;0.30;;;13.20;99.90;;;;;;20732982;28;20041;-43
2022/05/29 10:07:22;;;;;;;7.47;0.95;;;12.60;99.90;;;;;;20750215;28;21263;-43
2022/05/29 10:17:29;;;;;;;6.93;0.30;;;11.90;99.90;;;;;;20721839;28;20041;-43
2022/05/29 10:27:33;;;;;;;0.63;0.20;;;11.80;99.90;;;;;;20697455;28;20515;-43
2022/05/29 10:37:41;;;;;;;2.45;0.43;;;12.20;99.90;;;;;;20704002;28;20042;-43
2022/05/29 10:47:55;;;;;;;0.55;0.40;;;12.40;99.90;;;;;;20737230;28;21391;-43
2022/05/29 10:58:09;;;;;;;1.98;0.20;;;12.60;99.90;;;;;;20757158;28;20053;-43
2022/05/29 11:08:40;;;;;;;1.33;0.40;;;12.50;99.90;;;;;;20707762;28;20041;-43
2022/05/29 11:19:07;;;;;;;0.93;0.57;;;12.20;99.90;;;;;;20712840;28;21114;-43
2022/05/29 11:29:33;;;;;;;1.20;0.30;;;12.10;99.90;;;;;;20681725;28;21262;-44
2022/05/29 11:39:44;;;;;;;0.60;0.30;;;12.40;99.90;;;;;;20731482;28;20609;-43
2022/05/29 12:00:20;;;;;;;2.97;0.20;;;13.00;99.90;;;;;;20707105;28;20412;-43
2022/05/29 12:10:23;;;;;;;0.85;0.10;;;13.50;99.90;;;;;;20712810;28;20408;-43
2022/05/29 12:20:43;;;;;;;0.47;0.20;;;13.80;99.90;;;;;;20644166;28;20154;-44
2022/05/29 12:30:48;;;;;;;1.38;0.20;;;13.80;99.90;;;;;;20713425;28;20554;-44
2022/05/29 12:40:49;;;;;;;0.75;0.20;;;14.20;99.90;;;;;;20710959;28;20048;-44
2022/05/29 12:50:52;;;;;;;0.70;0.38;;;13.90;99.90;;;;;;20732238;28;20136;-44
2022/05/29 13:01:31;;;;;;;2.17;0.73;;;14.10;99.90;;;;;;20729842;28;20050;-44
2022/05/29 13:11:36;;;;;;;0.43;0.20;;;14.40;99.90;;;;;;20728501;28;20417;-43
2022/05/29 13:21:57;;;;;;;0.35;0.10;;;14.60;99.90;;;;;;20720466;28;22696;-43
2022/05/29 13:32:18;;;;;;;0.50;0.20;;;14.40;99.90;;;;;;20722239;28;20041;-43
2022/05/29 13:42:24;;;;;;;0.50;0.10;;;14.00;99.90;;;;;;20677930;28;20046;-44
2022/05/29 13:52:36;;;;;;;0.35;0.10;;;13.80;99.90;;;;;;20713406;28;21231;-44
2022/05/29 14:12:58;;;;;;;1.33;0.20;;;13.60;99.90;;;;;;20732554;28;20528;-44
2022/05/29 14:23:30;;;;;;;0.60;0.22;;;14.00;99.90;;;;;;20748847;28;20068;-44
2022/05/29 14:33:51;;;;;;;0.93;0.30;;;13.80;99.90;;;;;;20739962;28;20384;-44
2022/05/29 14:43:53;;;;;;;0.90;0.20;;;13.50;99.90;;;;;;20731050;28;20081;-44
2022/05/29 14:54:00;;;;;;;0.30;0.10;;;13.50;99.90;;;;;;20743123;28;20049;-44
2022/05/29 15:04:02;;;;;;;1.87;0.30;;;13.50;99.90;;;;;;20736846;28;20045;-44
2022/05/29 15:14:06;;;;;;;0.57;0.30;;;13.50;99.90;;;;;;20738870;28;21420;-44
2022/05/29 15:24:25;;;;;;;0.85;0.30;;;13.30;99.90;;;;;;20723633;28;20041;-44
2022/05/29 15:34:42;;;;;;;;;;;13.10;99.90;;;;;;20741749;28;20400;-44
2022/05/29 15:45:05;;;;;;;1.05;0.50;;;13.40;99.90;;;;;;20742016;28;21521;-44
2022/05/29 15:55:15;;;;;;;2.35;0.20;;;13.30;99.90;;;;;;20729034;28;20057;-44
2022/05/29 16:05:19;;;;;;;1.08;0.20;;;13.20;99.90;;;;;;20723391;28;20041;-44
2022/05/29 16:15:35;;;;;;;0.50;0.32;;;13.00;99.90;;;;;;20724090;28;20049;-44
2022/05/29 16:25:51;;;;;;;0.60;0.52;;;13.20;99.90;;;;;;20688528;28;20042;-44
2022/05/29 16:35:58;;;;;;;0.43;0.20;;;13.00;99.90;;;;;;20718015;28;20859;-44
2022/05/29 16:56:21;;;;;;;0.57;0.10;;;13.00;99.90;;;;;;20715920;28;20904;-44
2022/05/29 17:06:32;;;;;;;0.82;0.20;;;12.90;99.90;;;;;;20688920;28;20516;-44
2022/05/29 17:16:33;;;;;;;0.22;0.00;;;12.80;99.90;;;;;;20679527;28;20044;-44
2022/05/29 17:27:06;;;;;;;2.28;1.52;;;12.60;99.90;;;;;;20646999;28;20056;-44
2022/05/29 17:37:15;;;;;;;0.68;0.20;;;12.40;99.90;;;;;;20663755;28;21553;-44
2022/05/29 17:47:53;;;;;;;1.90;0.28;;;12.40;99.90;;;;;;20644498;28;20041;-44
2022/05/29 17:57:59;;;;;;;3.80;0.93;;;12.30;99.90;;;;;;20732125;28;20460;-44
2022/05/29 18:08:01;;;;;;;2.38;0.60;;;12.20;99.90;;;;;;20731807;28;20049;-44
2022/05/29 18:18:02;;;;;;;0.80;0.28;;;12.20;99.90;;;;;;20736376;28;20510;-44
2022/05/29 18:28:03;;;;;;;2.05;0.55;;;12.10;99.90;;;;;;20739151;28;20050;-44
2022/05/29 18:38:04;;;;;;;0.70;0.20;;;12.10;99.90;;;;;;20737261;28;20045;-44
2022/05/29 18:48:06;;;;;;;0.60;0.30;;;12.20;99.90;;;;;;20726591;28;20046;-42
2022/05/29 18:58:07;;;;;;;1.08;0.22;;;12.00;99.90;;;;;;20658371;28;20062;-42
2022/05/29 19:08:08;;;;;;;1.17;0.52;;;11.90;99.90;;;;;;20654428;28;20052;-42
2022/05/29 19:18:09;;;;;;;2.95;0.40;;;11.90;99.90;;;;;;20664965;28;20620;-42
2022/05/29 19:28:12;;;;;;;1.67;0.30;;;11.70;99.90;;;;;;20658203;28;20037;-42
2022/05/29 19:38:13;;;;;;;0.63;0.30;;;11.70;99.90;;;;;;20654668;28;20045;-42
2022/05/29 19:48:14;;;;;;;1.88;0.57;;;11.60;99.90;;;;;;20679441;28;20413;-42
2022/05/29 19:58:15;;;;;;;2.70;0.70;;;11.50;99.90;;;;;;20709730;28;20525;-42
2022/05/29 20:08:17;;;;;;;1.60;0.60;;;11.50;99.90;;;;;;20668557;28;20042;-42
2022/05/29 20:18:18;;;;;;;2.47;0.90;;;11.50;99.90;;;;;;20674552;28;20797;-42
2022/05/29 20:28:21;;;;;;;4.30;0.98;;;11.50;99.90;;;;;;20715388;28;20173;-42
2022/05/29 20:38:22;;;;;;;1.02;0.40;;;11.40;99.90;;;;;;20737029;28;20048;-41
2022/05/29 20:48:23;;;;;;;1.23;0.55;;;11.30;99.90;;;;;;20725392;28;20438;-41
2022/05/29 20:58:25;;;;;;;1.50;0.50;;;11.30;99.90;;;;;;20712979;28;20059;-42
2022/05/29 21:08:26;;;;;;;0.68;0.20;;;11.20;99.90;;;;;;20711323;28;20057;-42
2022/05/29 21:18:28;;;;;;;2.28;0.63;;;11.00;99.90;;;;;;20731494;28;20229;-42
2022/05/29 21:28:30;;;;;;;1.08;0.60;;;10.90;99.90;;;;;;20748051;28;20037;-41
2022/05/29 21:38:31;;;;;;;0.98;0.40;;;10.80;99.90;;;;;;20729068;28;20539;-42
2022/05/29 21:48:33;;;;;;;1.75;0.43;;;10.70;99.90;;;;;;20726967;28;20064;-40
2022/05/29 21:58:35;;;;;;;0.73;0.35;;;10.70;99.90;;;;;;20720032;28;20041;-40
2022/05/29 22:08:38;;;;;;;1.88;0.60;;;10.50;99.90;;;;;;20699628;28;20785;-41
2022/05/29 22:18:39;;;;;;;1.52;0.45;;;10.40;99.90;;;;;;20700807;28;20478;-41
2022/05/29 22:28:40;;;;;;;2.05;0.82;;;10.40;99.90;;;;;;20719493;28;20053;-41
2022/05/29 22:38:42;;;;;;;1.05;0.43;;;10.20;99.90;;;;;;20725553;28;20389;-41
2022/05/29 22:49:19;;;;;;;3.70;0.55;;;9.90;99.90;;;;;;20734266;28;20061;-41
2022/05/29 22:59:20;;;;;;;0.77;0.30;;;9.70;99.90;;;;;;20738011;28;20205;-40
2022/05/29 23:09:22;;;;;;;1.27;0.40;;;9.70;99.90;;;;;;20741376;28;20045;-40
2022/05/29 23:19:23;;;;;;;0.75;0.30;;;9.50;99.90;;;;;;20728843;28;21479;-40
2022/05/29 23:39:44;;;;;;;3.45;0.38;;;9.30;99.90;;;;;;20729657;28;21530;-42
2022/05/29 23:49:45;;;;;;;0.50;0.20;;;9.20;99.90;;;;;;20741294;28;20045;-42
2022/05/29 23:59:46;;;;;;;1.85;0.40;;;9.10;99.90;;;;;;20735055;28;20042;-43
